Time;durP1;ratioP1;P1;durP2;ratioP2;P2;SDS_P1;SDS_P2;PMS_P1;PMS_P2;Temp;Humidity;BMP_temperature;BMP_pressure;BME280_temperature;BME280_humidity;BME280_pressure;Samples;Min_cycle;Max_cycle;Signal;HPM_P1;HPM_P2
2021/06/18 00:01:14;;;;;;;8.40;5.68;;;25.50;59.50;;;;;;5033684;28;20036;-85
2021/06/18 00:03:40;;;;;;;6.75;5.05;;;25.40;59.40;;;;;;5040582;28;20033;-85
2021/06/18 00:06:05;;;;;;;9.15;5.57;;;25.40;59.40;;;;;;5043745;28;20029;-86
2021/06/18 00:08:31;;;;;;;10.70;5.65;;;25.30;60.20;;;;;;5059164;28;20033;-86
2021/06/18 00:10:56;;;;;;;7.85;5.57;;;25.20;59.90;;;;;;5033236;28;20373;-86
2021/06/18 00:13:22;;;;;;;12.38;5.63;;;25.10;60.00;;;;;;5031495;28;20033;-85
2021/06/18 00:15:47;;;;;;;10.73;6.25;;;25.00;60.60;;;;;;5030720;28;20101;-85
2021/06/18 00:18:14;;;;;;;7.15;5.10;;;25.00;61.00;;;;;;5030744;28;20447;-86
2021/06/18 00:20:39;;;;;;;9.88;5.40;;;25.00;59.40;;;;;;5039835;28;20036;-86
2021/06/18 00:23:05;;;;;;;9.77;5.07;;;25.00;61.00;;;;;;5030429;28;20365;-85
2021/06/18 00:25:30;;;;;;;10.80;6.47;;;25.00;59.60;;;;;;5039564;28;20063;-85
2021/06/18 00:27:56;;;;;;;11.05;5.13;;;25.00;59.40;;;;;;5041379;28;20040;-85
2021/06/18 00:30:22;;;;;;;8.43;5.57;;;25.00;58.30;;;;;;5030512;28;20484;-85
2021/06/18 00:32:48;;;;;;;8.88;5.35;;;24.90;58.30;;;;;;5031125;28;20028;-85
2021/06/18 00:35:13;;;;;;;6.78;6.07;;;24.80;58.90;;;;;;5042662;28;20044;-86
2021/06/18 00:37:39;;;;;;;10.82;5.28;;;24.80;58.00;;;;;;5027813;28;20408;-86
2021/06/18 00:40:05;;;;;;;7.38;5.50;;;24.80;59.70;;;;;;5026160;28;20032;-85
2021/06/18 00:42:30;;;;;;;10.90;5.88;;;24.70;59.80;;;;;;5043153;28;20056;-86
2021/06/18 00:44:56;;;;;;;11.93;6.25;;;24.70;60.20;;;;;;5041383;28;20052;-86
2021/06/18 00:47:22;;;;;;;11.90;5.70;;;24.70;61.00;;;;;;5027621;28;20036;-86
2021/06/18 00:49:48;;;;;;;6.68;5.22;;;24.50;61.30;;;;;;5024782;28;20484;-86
2021/06/18 00:52:13;;;;;;;8.52;5.57;;;24.50;61.10;;;;;;5043823;28;20052;-85
2021/06/18 00:54:40;;;;;;;8.73;5.63;;;24.40;60.50;;;;;;5042801;28;20033;-85
2021/06/18 00:57:06;;;;;;;8.77;5.93;;;24.40;61.10;;;;;;5028291;28;20063;-86
2021/06/18 00:59:31;;;;;;;13.15;5.43;;;24.40;62.20;;;;;;5036928;28;20441;-85
2021/06/18 01:01:57;;;;;;;8.55;5.95;;;24.30;61.80;;;;;;5029952;28;20052;-85
2021/06/18 01:04:24;;;;;;;12.50;5.75;;;24.20;61.40;;;;;;5031108;28;20036;-85
2021/06/18 01:06:53;;;;;;;6.97;5.85;;;24.20;60.90;;;;;;5027412;28;20329;-85
2021/06/18 01:09:19;;;;;;;7.57;6.60;;;24.10;62.30;;;;;;5045777;28;20500;-85
2021/06/18 01:12:00;;;;;;;11.15;5.75;;;24.00;62.00;;;;;;5046398;28;20183;-84
2021/06/18 01:14:36;;;;;;;11.45;5.95;;;24.00;62.30;;;;;;5045787;28;20476;-85
2021/06/18 01:17:06;;;;;;;9.15;6.00;;;23.90;62.50;;;;;;5032234;28;20447;-84
2021/06/18 01:19:51;;;;;;;7.35;5.45;;;23.90;63.10;;;;;;5047551;28;20029;-84
2021/06/18 01:22:17;;;;;;;8.85;5.82;;;23.80;62.80;;;;;;5058165;28;20039;-85
2021/06/18 01:25:23;;;;;;;12.50;5.75;;;23.90;63.00;;;;;;5024405;28;20033;-84
2021/06/18 01:28:18;;;;;;;7.10;5.32;;;23.90;63.00;;;;;;5030817;28;20481;-85
2021/06/18 01:30:44;;;;;;;7.03;5.50;;;23.80;62.10;;;;;;5057983;28;20492;-84
2021/06/18 01:33:11;;;;;;;10.07;5.95;;;23.80;62.40;;;;;;5040130;28;20037;-84
2021/06/18 01:35:41;;;;;;;11.13;5.95;;;23.70;63.90;;;;;;5020447;28;20040;-84
2021/06/18 01:38:09;;;;;;;12.25;6.30;;;23.60;64.90;;;;;;5031656;28;20039;-84
2021/06/18 01:40:34;;;;;;;13.93;5.82;;;23.70;63.00;;;;;;5017393;28;20496;-84
2021/06/18 01:43:00;;;;;;;7.18;5.57;;;23.60;63.40;;;;;;5037750;28;20028;-84
2021/06/18 01:45:29;;;;;;;14.35;6.50;;;23.60;63.10;;;;;;5037854;28;20028;-84
2021/06/18 01:47:55;;;;;;;10.45;6.95;;;23.60;63.60;;;;;;5039428;28;20033;-84
2021/06/18 01:50:21;;;;;;;6.93;5.65;;;23.50;64.20;;;;;;5030242;28;20114;-84
2021/06/18 01:52:51;;;;;;;10.75;6.28;;;23.60;64.40;;;;;;5028321;28;20445;-84
2021/06/18 01:55:19;;;;;;;9.75;6.93;;;23.60;62.40;;;;;;5028674;28;20051;-84
2021/06/18 01:57:44;;;;;;;11.82;7.35;;;23.40;63.20;;;;;;5023502;28;20484;-84
2021/06/18 02:00:10;;;;;;;9.90;6.38;;;23.30;64.20;;;;;;5044658;28;20028;-84
2021/06/18 02:02:36;;;;;;;10.40;7.25;;;23.40;63.80;;;;;;5026078;28;20112;-83
2021/06/18 02:05:03;;;;;;;12.57;6.90;;;23.30;64.10;;;;;;5039921;28;20029;-84
2021/06/18 02:07:29;;;;;;;9.10;6.60;;;23.40;65.40;;;;;;5034724;28;20060;-84
2021/06/18 02:09:54;;;;;;;11.63;6.78;;;23.30;64.90;;;;;;5037925;28;20527;-84
2021/06/18 02:12:20;;;;;;;8.15;6.20;;;23.30;65.70;;;;;;5020462;28;20120;-84
2021/06/18 02:14:45;;;;;;;12.73;7.72;;;23.20;64.50;;;;;;5021146;28;20086;-84
2021/06/18 02:17:11;;;;;;;13.00;7.78;;;23.20;63.80;;;;;;5029813;28;20086;-84
2021/06/18 02:19:37;;;;;;;8.70;7.60;;;23.20;62.90;;;;;;5047843;28;20025;-84
2021/06/18 02:22:06;;;;;;;12.23;6.80;;;23.20;64.50;;;;;;5039882;28;20036;-83
2021/06/18 02:24:31;;;;;;;11.30;8.10;;;23.10;64.10;;;;;;5043895;28;20035;-84
2021/06/18 02:26:57;;;;;;;13.23;8.02;;;23.00;65.10;;;;;;5038991;28;20021;-84
2021/06/18 02:29:23;;;;;;;10.68;7.68;;;23.00;65.40;;;;;;5029507;28;20024;-84
2021/06/18 02:31:49;;;;;;;11.32;7.55;;;23.00;66.80;;;;;;5041353;28;20032;-84
2021/06/18 02:34:14;;;;;;;10.07;6.55;;;22.90;66.40;;;;;;5029705;28;20029;-84
2021/06/18 02:36:40;;;;;;;12.20;8.63;;;22.90;65.60;;;;;;5038192;28;20013;-84
2021/06/18 02:39:07;;;;;;;11.25;7.75;;;22.90;66.00;;;;;;5023039;28;20032;-84
2021/06/18 02:41:32;;;;;;;9.93;7.50;;;22.90;67.10;;;;;;5021727;28;20500;-85
2021/06/18 02:43:59;;;;;;;10.98;8.30;;;22.80;67.40;;;;;;5022821;28;20048;-84
2021/06/18 02:46:31;;;;;;;11.38;8.35;;;22.80;66.50;;;;;;5058075;28;20123;-85
2021/06/18 02:48:59;;;;;;;11.23;8.90;;;22.70;66.70;;;;;;5052135;28;20044;-85
2021/06/18 02:51:41;;;;;;;12.02;8.73;;;22.70;66.60;;;;;;5019611;28;20060;-82
2021/06/18 02:54:35;;;;;;;10.48;8.43;;;22.70;67.50;;;;;;5037948;28;20042;-82
2021/06/18 02:57:08;;;;;;;16.13;9.10;;;22.70;69.70;;;;;;5055068;28;20084;-82
2021/06/18 02:59:57;;;;;;;13.10;8.50;;;22.70;70.30;;;;;;5045367;28;20033;-81
2021/06/18 03:02:25;;;;;;;14.10;8.98;;;22.70;67.60;;;;;;5044837;28;20032;-81
2021/06/18 03:04:51;;;;;;;13.30;8.23;;;22.70;68.50;;;;;;5026298;28;20037;-81
2021/06/18 03:07:17;;;;;;;12.52;8.57;;;22.70;67.40;;;;;;5045468;28;20044;-82
2021/06/18 03:09:48;;;;;;;13.23;9.18;;;22.70;67.80;;;;;;5026169;28;20031;-80
2021/06/18 03:12:14;;;;;;;18.52;9.90;;;22.60;65.70;;;;;;5029267;28;20029;-79
2021/06/18 03:14:42;;;;;;;10.88;8.65;;;22.60;67.40;;;;;;5034259;28;20094;-80
2021/06/18 03:17:10;;;;;;;12.13;9.27;;;22.40;68.90;;;;;;5024735;28;20058;-80
2021/06/18 03:19:43;;;;;;;10.25;9.25;;;22.60;72.40;;;;;;5040016;28;20053;-80
2021/06/18 03:22:09;;;;;;;14.20;8.52;;;22.40;70.10;;;;;;5041921;28;20040;-80
2021/06/18 03:24:34;;;;;;;16.48;10.60;;;22.40;70.70;;;;;;5038199;28;20025;-81
2021/06/18 03:27:00;;;;;;;13.45;9.60;;;22.50;69.80;;;;;;5047212;28;20036;-79
2021/06/18 03:29:26;;;;;;;13.75;10.30;;;22.50;72.10;;;;;;5031082;28;20029;-79
2021/06/18 03:31:55;;;;;;;16.83;10.45;;;22.50;67.70;;;;;;5046881;28;20448;-79
2021/06/18 03:34:22;;;;;;;11.55;10.38;;;22.40;70.10;;;;;;5064997;28;20036;-80
2021/06/18 03:36:48;;;;;;;13.25;9.95;;;22.30;71.90;;;;;;5028900;28;20446;-80
2021/06/18 03:39:13;;;;;;;11.23;9.98;;;22.40;72.40;;;;;;5033813;28;20029;-80
2021/06/18 03:41:39;;;;;;;13.60;10.98;;;22.40;71.30;;;;;;5047393;28;20039;-80
2021/06/18 03:44:05;;;;;;;15.85;10.75;;;22.40;71.40;;;;;;5049705;28;20032;-80
2021/06/18 03:46:30;;;;;;;14.02;10.85;;;22.40;76.30;;;;;;5044205;28;20503;-80
2021/06/18 03:48:56;;;;;;;13.63;9.65;;;22.50;71.50;;;;;;5039818;28;20056;-80
2021/06/18 03:51:21;;;;;;;13.80;11.00;;;22.50;73.50;;;;;;5027079;28;20108;-80
2021/06/18 03:53:47;;;;;;;14.10;11.52;;;22.40;73.60;;;;;;5021557;28;20029;-80
2021/06/18 03:56:12;;;;;;;16.92;12.82;;;22.50;74.30;;;;;;5061790;28;20032;-80
2021/06/18 03:58:39;;;;;;;13.57;11.25;;;22.50;74.00;;;;;;5057066;28;20029;-80
2021/06/18 04:01:05;;;;;;;15.48;10.73;;;22.50;73.80;;;;;;5039397;28;20527;-80
2021/06/18 04:03:30;;;;;;;12.05;10.88;;;22.60;73.20;;;;;;5052228;28;20025;-80
2021/06/18 04:06:01;;;;;;;11.98;10.77;;;22.50;73.80;;;;;;5020317;28;20033;-80
2021/06/18 04:08:27;;;;;;;15.82;10.70;;;22.70;77.00;;;;;;5045523;28;20052;-80
2021/06/18 04:10:52;;;;;;;14.00;11.02;;;22.80;74.10;;;;;;5041998;28;20036;-80
2021/06/18 04:13:18;;;;;;;14.15;10.68;;;22.90;72.70;;;;;;5049851;28;20064;-80
2021/06/18 04:15:44;;;;;;;12.82;10.45;;;22.90;73.60;;;;;;5046462;28;20032;-80
2021/06/18 04:18:09;;;;;;;12.18;10.63;;;23.00;74.60;;;;;;5041539;28;20056;-80
2021/06/18 04:20:35;;;;;;;15.00;10.18;;;23.10;74.60;;;;;;5042264;28;20484;-80
2021/06/18 04:23:00;;;;;;;14.48;11.00;;;23.20;73.30;;;;;;5042662;28;20564;-80
2021/06/18 04:25:26;;;;;;;15.68;8.57;;;23.30;72.70;;;;;;5059780;28;20057;-80
2021/06/18 04:27:53;;;;;;;14.23;10.82;;;23.40;70.00;;;;;;5043485;28;20044;-80
2021/06/18 04:30:18;;;;;;;12.00;9.63;;;23.50;70.30;;;;;;5045514;28;20032;-80
2021/06/18 04:32:44;;;;;;;12.27;6.57;;;23.60;70.10;;;;;;5040919;28;20041;-80
2021/06/18 04:35:10;;;;;;;10.52;9.23;;;23.70;68.80;;;;;;5021789;28;20036;-80
2021/06/18 04:37:35;;;;;;;11.93;10.13;;;23.90;68.30;;;;;;5025379;28;20113;-80
2021/06/18 04:40:01;;;;;;;15.15;10.65;;;23.90;68.40;;;;;;5029258;28;20057;-81
2021/06/18 04:42:27;;;;;;;13.02;10.00;;;24.10;68.90;;;;;;5059737;28;20039;-80
2021/06/18 04:44:53;;;;;;;12.68;11.02;;;24.20;69.00;;;;;;5039892;28;20112;-82
2021/06/18 04:47:19;;;;;;;14.10;9.98;;;24.30;68.80;;;;;;5060976;28;20503;-81
2021/06/18 04:49:46;;;;;;;12.20;10.25;;;24.50;68.40;;;;;;5024992;28;20028;-81
2021/06/18 04:52:11;;;;;;;14.20;10.68;;;24.60;69.70;;;;;;5061252;28;20064;-82
2021/06/18 04:54:37;;;;;;;11.95;9.48;;;24.80;69.50;;;;;;5039253;28;20048;-81
2021/06/18 04:57:03;;;;;;;14.02;9.50;;;24.90;70.10;;;;;;5023155;28;20558;-82
2021/06/18 04:59:28;;;;;;;13.45;10.60;;;25.10;69.70;;;;;;5044666;28;20116;-82
2021/06/18 05:01:54;;;;;;;12.98;11.45;;;25.30;70.20;;;;;;5046361;28;20107;-81
2021/06/18 05:04:19;;;;;;;11.88;10.60;;;25.50;70.60;;;;;;5046901;28;20021;-81
2021/06/18 05:06:45;;;;;;;13.70;10.95;;;25.60;70.90;;;;;;5057912;28;20028;-83
2021/06/18 05:09:11;;;;;;;14.18;10.85;;;25.70;70.60;;;;;;5057430;28;20032;-82
2021/06/18 05:11:36;;;;;;;13.88;9.40;;;26.00;70.20;;;;;;5027961;28;20042;-82
2021/06/18 05:14:02;;;;;;;14.45;10.65;;;26.10;69.40;;;;;;5026528;28;20125;-82
2021/06/18 05:16:27;;;;;;;11.65;8.38;;;26.30;69.20;;;;;;5029234;28;20021;-82
2021/06/18 05:18:53;;;;;;;15.63;10.90;;;26.50;69.50;;;;;;5044627;28;20033;-82
2021/06/18 05:21:19;;;;;;;16.25;10.25;;;26.70;68.30;;;;;;5045246;28;20025;-82
2021/06/18 05:23:44;;;;;;;17.23;12.32;;;26.90;68.00;;;;;;5043397;28;20029;-83
2021/06/18 05:26:11;;;;;;;16.98;12.35;;;27.10;68.80;;;;;;5042171;28;20032;-83
2021/06/18 05:28:36;;;;;;;15.50;10.55;;;27.30;69.40;;;;;;5024214;28;20497;-82
2021/06/18 05:31:02;;;;;;;17.15;9.85;;;27.50;67.60;;;;;;5041862;28;20035;-82
2021/06/18 05:33:28;;;;;;;17.30;10.93;;;27.70;67.20;;;;;;5023773;28;20036;-82
2021/06/18 05:35:53;;;;;;;11.20;9.98;;;27.90;67.80;;;;;;5035051;28;20685;-84
2021/06/18 05:38:19;;;;;;;12.07;10.85;;;28.10;66.70;;;;;;5065706;28;20078;-84
2021/06/18 05:40:44;;;;;;;11.73;10.55;;;28.30;67.30;;;;;;5051372;28;20032;-84
2021/06/18 05:43:10;;;;;;;14.27;9.70;;;28.50;66.70;;;;;;5051804;28;20028;-84
2021/06/18 05:45:36;;;;;;;17.80;11.57;;;28.70;65.90;;;;;;5067266;28;20082;-85
2021/06/18 05:48:03;;;;;;;11.57;9.77;;;29.00;66.40;;;;;;5032268;28;20044;-85
2021/06/18 05:50:29;;;;;;;12.93;9.68;;;29.10;65.10;;;;;;5025133;28;20052;-85
2021/06/18 05:52:54;;;;;;;8.40;7.55;;;29.30;64.60;;;;;;5038417;28;20453;-85
2021/06/18 05:55:20;;;;;;;15.48;11.07;;;29.40;62.70;;;;;;5020768;28;20032;-85
2021/06/18 05:57:48;;;;;;;9.57;8.32;;;29.60;64.20;;;;;;5023173;28;20132;-86
2021/06/18 06:00:14;;;;;;;12.18;8.63;;;29.90;63.60;;;;;;5043870;28;20079;-85
2021/06/18 06:02:39;;;;;;;15.00;11.00;;;30.00;62.80;;;;;;5030481;28;20033;-85
2021/06/18 06:05:05;;;;;;;13.35;9.18;;;30.20;62.90;;;;;;5048848;28;20036;-85
2021/06/18 06:07:31;;;;;;;14.57;9.80;;;30.50;62.00;;;;;;5030910;28;20033;-85
2021/06/18 06:09:56;;;;;;;14.77;11.77;;;30.60;61.70;;;;;;5041331;28;20032;-85
2021/06/18 06:12:22;;;;;;;18.77;11.27;;;30.80;61.50;;;;;;5046394;28;20040;-85
2021/06/18 06:14:48;;;;;;;12.77;10.30;;;31.00;60.30;;;;;;5043207;28;20032;-85
2021/06/18 06:17:13;;;;;;;15.32;11.73;;;31.20;60.00;;;;;;5057137;28;20449;-85
2021/06/18 06:19:39;;;;;;;17.40;11.45;;;31.30;59.60;;;;;;5028367;28;20134;-85
2021/06/18 06:22:04;;;;;;;13.80;9.00;;;31.50;59.40;;;;;;5027699;28;20036;-84
2021/06/18 06:24:30;;;;;;;12.90;10.88;;;31.70;58.80;;;;;;5027355;28;20028;-85
2021/06/18 06:26:55;;;;;;;15.48;9.82;;;31.90;58.20;;;;;;5021098;28;20412;-85
2021/06/18 06:29:21;;;;;;;13.98;10.90;;;32.00;58.30;;;;;;5043916;28;20099;-85
2021/06/18 06:31:47;;;;;;;13.68;11.35;;;32.10;58.20;;;;;;5044006;28;20043;-85
2021/06/18 06:34:12;;;;;;;15.90;12.45;;;32.40;57.80;;;;;;5050554;28;20123;-85
2021/06/18 06:36:38;;;;;;;16.23;11.27;;;32.60;56.40;;;;;;5056137;28;20093;-85
2021/06/18 06:39:04;;;;;;;16.92;10.25;;;32.70;56.90;;;;;;5047175;28;20029;-84
2021/06/18 06:41:29;;;;;;;16.05;10.95;;;32.90;56.00;;;;;;5046545;28;20098;-85
2021/06/18 06:43:55;;;;;;;11.65;7.55;;;33.00;56.00;;;;;;5026707;28;20508;-84
2021/06/18 06:46:21;;;;;;;9.27;7.68;;;33.30;55.50;;;;;;5032762;28;20312;-84
2021/06/18 06:48:47;;;;;;;12.68;11.30;;;33.40;55.00;;;;;;5038700;28;20037;-85
2021/06/18 06:51:13;;;;;;;15.75;11.05;;;33.50;55.00;;;;;;5032738;28;20040;-85
2021/06/18 06:53:39;;;;;;;16.48;11.30;;;33.60;54.60;;;;;;5050504;28;20538;-85
2021/06/18 06:56:04;;;;;;;8.73;6.90;;;33.80;54.20;;;;;;4695611;28;9999956;-85
2021/06/18 06:58:30;;;;;;;11.07;7.82;;;34.00;53.50;;;;;;5025443;28;20268;-87
2021/06/18 07:00:56;;;;;;;9.93;6.88;;;34.10;53.80;;;;;;5019966;28;20033;-87
2021/06/18 07:03:22;;;;;;;10.77;7.15;;;34.20;52.40;;;;;;5022232;28;20037;-87
2021/06/18 07:05:47;;;;;;;17.83;11.88;;;34.20;52.70;;;;;;5026330;28;20040;-87
2021/06/18 07:08:20;;;;;;;10.48;7.93;;;34.40;53.10;;;;;;5046054;28;20047;-87
2021/06/18 07:10:47;;;;;;;11.02;9.88;;;34.60;52.40;;;;;;5027149;28;20033;-87
2021/06/18 07:13:15;;;;;;;16.42;8.73;;;35.00;51.60;;;;;;5032212;28;20032;-87
2021/06/18 07:15:41;;;;;;;13.73;8.70;;;35.10;51.30;;;;;;5028898;28;20048;-87
2021/06/18 07:18:28;;;;;;;9.55;7.88;;;35.20;51.60;;;;;;5028964;28;20094;-87
2021/06/18 07:20:54;;;;;;;10.75;8.02;;;35.10;51.40;;;;;;5016998;28;20233;-87
2021/06/18 07:23:20;;;;;;;10.77;6.75;;;35.20;51.50;;;;;;5030176;28;20087;-86
2021/06/18 07:25:46;;;;;;;9.23;6.50;;;35.00;51.30;;;;;;5024531;28;20027;-86
2021/06/18 07:28:17;;;;;;;12.77;8.77;;;35.30;51.10;;;;;;5027362;28;20040;-86
2021/06/18 07:30:43;;;;;;;15.70;8.70;;;35.60;50.90;;;;;;5036126;28;20400;-86
2021/06/18 07:33:09;;;;;;;11.63;9.30;;;35.80;50.60;;;;;;5022101;28;20029;-85
2021/06/18 07:35:35;;;;;;;11.70;7.38;;;35.80;50.60;;;;;;5022806;28;20109;-85
2021/06/18 07:38:01;;;;;;;9.63;6.28;;;35.90;49.80;;;;;;5040821;28;20041;-85
2021/06/18 07:40:26;;;;;;;14.82;10.23;;;36.00;49.40;;;;;;5023084;28;20499;-84
2021/06/18 07:42:52;;;;;;;10.75;7.28;;;36.30;49.40;;;;;;5021044;28;20043;-84
2021/06/18 07:45:17;;;;;;;7.20;6.50;;;36.40;49.10;;;;;;5030035;28;20036;-84
2021/06/18 07:47:43;;;;;;;22.88;13.48;;;36.50;48.90;;;;;;5028352;28;20091;-83
2021/06/18 07:50:10;;;;;;;15.75;9.52;;;36.70;48.50;;;;;;5043503;28;20031;-83
2021/06/18 07:52:36;;;;;;;12.00;9.57;;;36.90;47.40;;;;;;5026028;28;20396;-83
2021/06/18 07:55:02;;;;;;;8.25;7.13;;;36.70;47.80;;;;;;5028418;28;20083;-82
2021/06/18 07:57:28;;;;;;;8.93;6.68;;;36.60;47.60;;;;;;5043087;28;20032;-82
2021/06/18 07:59:53;;;;;;;9.80;7.90;;;36.60;47.80;;;;;;5058239;28;20366;-82
2021/06/18 08:02:19;;;;;;;11.50;7.28;;;36.70;47.80;;;;;;5041620;28;20598;-82
2021/06/18 08:04:45;;;;;;;15.48;13.18;;;36.80;48.00;;;;;;5027504;28;20031;-83
2021/06/18 08:07:10;;;;;;;11.43;8.25;;;37.10;47.70;;;;;;5047342;28;20119;-82
2021/06/18 08:09:36;;;;;;;15.82;11.57;;;37.40;46.90;;;;;;5040002;28;20043;-81
2021/06/18 08:12:02;;;;;;;15.25;8.35;;;37.60;46.70;;;;;;5022889;28;20063;-81
2021/06/18 08:14:28;;;;;;;10.68;7.85;;;37.60;46.60;;;;;;5039350;28;20388;-82
2021/06/18 08:16:54;;;;;;;9.32;7.32;;;37.20;46.90;;;;;;5055817;28;20021;-82
2021/06/18 08:19:21;;;;;;;18.77;9.88;;;37.60;46.70;;;;;;5044111;28;20499;-82
2021/06/18 08:21:46;;;;;;;9.63;7.53;;;38.10;46.30;;;;;;5024611;28;20135;-81
2021/06/18 08:24:13;;;;;;;11.85;8.40;;;38.30;45.60;;;;;;5044976;28;20115;-81
2021/06/18 08:26:39;;;;;;;12.93;11.73;;;38.40;45.30;;;;;;5046089;28;20100;-80
2021/06/18 08:29:04;;;;;;;12.95;10.48;;;38.70;44.50;;;;;;5064331;28;20488;-80
2021/06/18 08:31:30;;;;;;;13.70;9.30;;;39.10;43.60;;;;;;5042255;28;20036;-81
2021/06/18 08:34:02;;;;;;;19.13;10.48;;;39.30;43.40;;;;;;5021574;28;20044;-80
2021/06/18 08:36:28;;;;;;;16.80;11.75;;;39.60;42.60;;;;;;5034721;28;20040;-80
2021/06/18 08:38:53;;;;;;;15.68;11.73;;;39.90;42.10;;;;;;5023339;28;20021;-80
2021/06/18 08:41:20;;;;;;;14.18;9.40;;;40.20;41.40;;;;;;5046565;28;20029;-80
2021/06/18 08:43:48;;;;;;;11.23;6.80;;;40.30;41.40;;;;;;5057127;28;20577;-79
2021/06/18 08:46:14;;;;;;;16.10;9.73;;;40.40;41.60;;;;;;5056914;28;20044;-79
2021/06/18 08:48:39;;;;;;;7.60;6.78;;;40.40;41.10;;;;;;5035447;28;20036;-79
2021/06/18 08:51:05;;;;;;;7.55;6.20;;;40.40;42.00;;;;;;5055300;28;20035;-79
2021/06/18 08:53:34;;;;;;;8.15;6.15;;;40.60;40.90;;;;;;5052476;28;20024;-79
2021/06/18 08:56:00;;;;;;;8.38;6.65;;;40.50;41.70;;;;;;5028524;28;20530;-79
2021/06/18 08:58:26;;;;;;;11.77;8.18;;;40.70;41.80;;;;;;5044747;28;20051;-79
2021/06/18 09:00:52;;;;;;;14.02;8.60;;;41.20;40.30;;;;;;5030799;28;20129;-79
2021/06/18 09:03:36;;;;;;;13.13;9.85;;;41.60;39.70;;;;;;5030979;28;20036;-79
2021/06/18 09:06:20;;;;;;;10.85;6.53;;;41.70;38.20;;;;;;5058785;28;20124;-79
2021/06/18 09:08:46;;;;;;;14.15;7.80;;;41.50;38.00;;;;;;5071649;28;20110;-79
2021/06/18 09:11:11;;;;;;;9.88;6.93;;;41.30;37.80;;;;;;5040423;28;20025;-79
2021/06/18 09:13:38;;;;;;;11.23;6.20;;;41.10;38.10;;;;;;5027252;28;20037;-79
2021/06/18 09:16:04;;;;;;;10.85;7.32;;;40.80;38.40;;;;;;5040461;28;20461;-79
2021/06/18 09:18:36;;;;;;;8.43;6.53;;;40.80;38.70;;;;;;5029017;28;20116;-79
2021/06/18 09:21:02;;;;;;;7.55;6.18;;;40.60;39.10;;;;;;5056074;28;20323;-79
2021/06/18 09:23:35;;;;;;;10.30;7.03;;;40.50;39.60;;;;;;5056546;28;20029;-79
2021/06/18 09:26:33;;;;;;;8.30;6.47;;;40.60;39.50;;;;;;5039494;28;20142;-79
2021/06/18 09:29:12;;;;;;;7.18;5.85;;;40.90;39.40;;;;;;5059353;28;20048;-79
2021/06/18 09:31:39;;;;;;;6.85;5.75;;;40.80;39.60;;;;;;5042256;28;20433;-78
2021/06/18 09:34:07;;;;;;;10.50;6.63;;;40.40;40.50;;;;;;5055171;28;20131;-79
2021/06/18 09:36:33;;;;;;;10.20;6.18;;;40.70;39.80;;;;;;5020854;28;20094;-79
2021/06/18 09:38:59;;;;;;;7.15;5.70;;;41.10;38.80;;;;;;5043467;28;20036;-79
2021/06/18 09:41:29;;;;;;;10.30;5.45;;;41.30;38.50;;;;;;5038791;28;20037;-79
2021/06/18 09:44:01;;;;;;;7.30;5.85;;;41.30;39.00;;;;;;5054324;28;20029;-79
2021/06/18 09:46:40;;;;;;;9.13;5.45;;;41.40;38.70;;;;;;5053930;28;20033;-79
2021/06/18 09:49:05;;;;;;;9.18;5.30;;;41.50;38.40;;;;;;5058687;28;20039;-79
2021/06/18 09:51:31;;;;;;;12.98;5.88;;;41.50;38.00;;;;;;5044589;28;20361;-79
2021/06/18 09:53:56;;;;;;;12.90;5.72;;;41.70;37.80;;;;;;5037620;28;20409;-79
2021/06/18 09:56:22;;;;;;;6.80;5.78;;;41.80;37.40;;;;;;5027193;28;20408;-79
2021/06/18 09:58:48;;;;;;;9.93;5.50;;;41.90;37.60;;;;;;5023068;28;20033;-79
2021/06/18 10:01:31;;;;;;;9.32;6.20;;;41.70;37.60;;;;;;5028952;28;20024;-79
2021/06/18 10:03:57;;;;;;;13.70;5.53;;;41.90;37.20;;;;;;5037802;28;20033;-79
2021/06/18 10:06:24;;;;;;;9.15;4.95;;;42.00;36.80;;;;;;5054505;28;20032;-79
2021/06/18 10:08:50;;;;;;;9.95;5.40;;;41.80;37.40;;;;;;5016141;28;20500;-79
2021/06/18 10:11:15;;;;;;;7.03;4.75;;;41.80;37.30;;;;;;5040424;28;20066;-79
2021/06/18 10:13:41;;;;;;;9.15;4.85;;;41.80;36.60;;;;;;5044043;28;20029;-79
2021/06/18 10:16:06;;;;;;;11.65;4.70;;;41.70;36.50;;;;;;5056775;28;20028;-79
2021/06/18 10:18:32;;;;;;;11.40;4.95;;;41.60;35.80;;;;;;5020545;28;20037;-79
2021/06/18 10:20:58;;;;;;;9.32;4.50;;;41.60;35.90;;;;;;5021125;28;20041;-79
2021/06/18 10:23:24;;;;;;;7.75;4.18;;;41.70;36.00;;;;;;5044334;28;20047;-79
2021/06/18 10:25:56;;;;;;;9.13;3.75;;;41.60;35.70;;;;;;5037534;28;20037;-79
2021/06/18 10:28:25;;;;;;;7.38;3.30;;;41.50;35.20;;;;;;5041166;28;20033;-79
2021/06/18 10:30:54;;;;;;;9.07;3.35;;;41.50;35.00;;;;;;5024478;28;20056;-79
2021/06/18 10:33:26;;;;;;;7.90;3.90;;;41.40;34.10;;;;;;5028814;28;20476;-79
2021/06/18 10:35:58;;;;;;;8.45;4.38;;;41.60;34.10;;;;;;5060254;28;20024;-79
2021/06/18 10:38:43;;;;;;;7.90;3.92;;;41.60;34.30;;;;;;5028586;28;20072;-79
2021/06/18 10:41:18;;;;;;;5.32;3.90;;;41.80;34.30;;;;;;5043004;28;20040;-79
2021/06/18 10:43:51;;;;;;;8.93;5.20;;;42.00;35.00;;;;;;5058572;28;20029;-79
2021/06/18 10:46:30;;;;;;;7.13;4.45;;;42.00;34.20;;;;;;5027046;28;20224;-79
2021/06/18 10:49:09;;;;;;;7.40;4.72;;;42.20;34.40;;;;;;5054502;28;20044;-79
2021/06/18 10:51:37;;;;;;;6.15;4.18;;;42.20;34.60;;;;;;5033734;28;20506;-79
2021/06/18 10:54:07;;;;;;;14.77;4.93;;;42.10;35.20;;;;;;5054912;28;20063;-79
2021/06/18 10:56:45;;;;;;;7.82;4.03;;;42.40;34.30;;;;;;5037267;28;20041;-79
2021/06/18 10:59:37;;;;;;;11.02;4.20;;;42.30;34.90;;;;;;5053517;28;20380;-79
2021/06/18 11:02:21;;;;;;;11.07;4.78;;;42.20;35.20;;;;;;5028913;28;20037;-79
2021/06/18 11:04:50;;;;;;;7.70;4.37;;;42.40;34.70;;;;;;4705157;28;9999711;-79
2021/06/18 11:07:35;;;;;;;15.38;5.45;;;42.40;35.30;;;;;;5040059;28;20495;-79
2021/06/18 11:10:12;;;;;;;8.68;4.72;;;42.60;35.40;;;;;;5068028;28;20060;-78
2021/06/18 11:12:59;;;;;;;12.27;4.95;;;42.80;35.10;;;;;;5054638;28;20400;-78
2021/06/18 11:15:25;;;;;;;6.85;4.40;;;42.90;35.30;;;;;;5052749;28;20476;-78
2021/06/18 11:18:13;;;;;;;11.95;4.85;;;43.10;35.00;;;;;;5059030;28;20025;-78
2021/06/18 11:20:49;;;;;;;13.05;5.47;;;43.40;35.20;;;;;;5043968;28;20039;-78
2021/06/18 11:23:21;;;;;;;17.85;4.35;;;43.90;34.80;;;;;;5045332;28;20116;-78
2021/06/18 11:26:09;;;;;;;5.93;4.18;;;44.30;32.80;;;;;;5057943;28;20029;-78
2021/06/18 11:28:42;;;;;;;9.50;4.00;;;44.30;31.90;;;;;;5037942;28;20044;-78
2021/06/18 11:31:16;;;;;;;6.20;3.90;;;44.50;32.20;;;;;;5036202;28;20578;-78
2021/06/18 11:33:44;;;;;;;11.45;3.95;;;44.60;32.00;;;;;;5040121;28;20044;-78
2021/06/18 11:36:12;;;;;;;6.07;3.75;;;44.50;31.70;;;;;;5072503;28;20052;-77
2021/06/18 11:38:38;;;;;;;11.07;3.70;;;44.70;31.80;;;;;;5061233;28;20139;-77
2021/06/18 11:41:09;;;;;;;12.77;4.65;;;44.70;31.70;;;;;;5058487;28;20183;-77
2021/06/18 11:43:34;;;;;;;9.10;3.58;;;44.80;31.00;;;;;;5044483;28;20499;-78
2021/06/18 11:46:00;;;;;;;9.70;3.47;;;44.90;30.40;;;;;;5056241;28;20329;-78
2021/06/18 11:48:26;;;;;;;8.65;3.55;;;45.00;31.10;;;;;;5059703;28;20036;-78
2021/06/18 11:50:52;;;;;;;8.48;3.35;;;44.90;30.70;;;;;;5063000;28;20040;-78
2021/06/18 11:53:17;;;;;;;11.75;3.80;;;45.20;29.90;;;;;;5044241;28;20020;-78
2021/06/18 11:55:43;;;;;;;5.43;3.33;;;45.40;30.00;;;;;;5041661;28;20033;-78
2021/06/18 11:58:28;;;;;;;8.52;3.47;;;45.50;29.40;;;;;;5040463;28;20028;-78
2021/06/18 12:00:54;;;;;;;;;;;45.70;28.70;;;;;;5057255;28;20108;-78
2021/06/18 12:03:29;;;;;;;7.05;3.13;;;45.80;29.10;;;;;;5045053;28;20336;-78
2021/06/18 12:05:54;;;;;;;6.65;3.28;;;45.80;28.30;;;;;;5044509;28;20044;-78
2021/06/18 12:08:20;;;;;;;11.75;3.88;;;46.00;29.00;;;;;;5028799;28;20488;-80
2021/06/18 12:10:45;;;;;;;6.20;3.05;;;46.10;27.90;;;;;;5026635;28;20025;-79
2021/06/18 12:13:14;;;;;;;4.75;2.72;;;46.00;29.30;;;;;;5060270;28;20377;-79
2021/06/18 12:15:40;;;;;;;6.38;2.53;;;45.30;27.20;;;;;;5042855;28;20036;-79
2021/06/18 12:18:05;;;;;;;5.15;2.63;;;45.50;27.30;;;;;;5040655;28;20039;-79
2021/06/18 12:20:36;;;;;;;4.53;2.65;;;45.60;27.60;;;;;;5024534;28;20043;-79
2021/06/18 12:23:03;;;;;;;6.43;2.78;;;45.80;26.80;;;;;;5027683;28;20048;-79
2021/06/18 12:25:28;;;;;;;7.07;2.78;;;46.20;26.00;;;;;;5040730;28;20115;-79
2021/06/18 12:27:59;;;;;;;4.15;2.33;;;46.40;25.20;;;;;;5043831;28;20557;-79
2021/06/18 12:30:25;;;;;;;4.55;3.20;;;46.20;26.00;;;;;;5043579;28;20453;-79
2021/06/18 12:32:51;;;;;;;4.43;2.53;;;46.30;25.60;;;;;;5043225;28;20063;-79
2021/06/18 12:35:18;;;;;;;4.30;2.58;;;46.20;26.30;;;;;;5026827;28;20053;-79
2021/06/18 12:37:52;;;;;;;5.30;2.88;;;46.30;26.30;;;;;;5027605;28;20021;-79
2021/06/18 12:40:27;;;;;;;;;;;46.20;26.40;;;;;;5054879;28;20037;-79
2021/06/18 12:42:54;;;;;;;5.60;2.47;;;46.30;26.70;;;;;;5043833;28;20334;-79